sensor_id;sensor_type;location;lat;lon;timestamp;temperature;humidity
31619;DHT22;18230;51.502;7.108;2023-05-10T00:03:57;14.80;99.90
31619;DHT22;18230;51.502;7.108;2023-05-10T00:08:58;14.80;99.90
31619;DHT22;18230;51.502;7.108;2023-05-10T00:13:59;14.80;99.90
31619;DHT22;18230;51.502;7.108;2023-05-10T00:19:00;14.70;99.90
31619;DHT22;18230;51.502;7.108;2023-05-10T00:24:01;14.70;99.90
31619;DHT22;18230;51.502;7.108;2023-05-10T00:29:01;14.70;99.90
31619;DHT22;18230;51.502;7.108;2023-05-10T00:34:02;14.70;99.90
31619;DHT22;18230;51.502;7.108;2023-05-10T00:39:03;14.60;99.90
31619;DHT22;18230;51.502;7.108;2023-05-10T00:44:04;14.60;99.90
31619;DHT22;18230;51.502;7.108;2023-05-10T00:49:06;14.70;99.90
31619;DHT22;18230;51.502;7.108;2023-05-10T00:54:07;14.80;99.90
31619;DHT22;18230;51.502;7.108;2023-05-10T00:59:11;14.70;99.90
31619;DHT22;18230;51.502;7.108;2023-05-10T01:04:12;14.70;99.90
31619;DHT22;18230;51.502;7.108;2023-05-10T01:09:13;14.70;99.90
31619;DHT22;18230;51.502;7.108;2023-05-10T01:14:15;14.70;99.90
31619;DHT22;18230;51.502;7.108;2023-05-10T01:19:36;14.60;99.90
31619;DHT22;18230;51.502;7.108;2023-05-10T01:35:26;14.50;99.90
31619;DHT22;18230;51.502;7.108;2023-05-10T01:45:51;14.50;99.90
31619;DHT22;18230;51.502;7.108;2023-05-10T01:50:58;14.40;99.90
31619;DHT22;18230;51.502;7.108;2023-05-10T01:56:00;14.40;99.90
31619;DHT22;18230;51.502;7.108;2023-05-10T02:01:04;14.40;99.90
31619;DHT22;18230;51.502;7.108;2023-05-10T02:06:07;14.30;99.90
31619;DHT22;18230;51.502;7.108;2023-05-10T02:11:11;14.40;99.90
31619;DHT22;18230;51.502;7.108;2023-05-10T02:16:13;14.40;99.90
31619;DHT22;18230;51.502;7.108;2023-05-10T02:21:15;14.50;99.90
31619;DHT22;18230;51.502;7.108;2023-05-10T02:26:18;14.30;99.90
31619;DHT22;18230;51.502;7.108;2023-05-10T02:31:22;14.30;99.90
31619;DHT22;18230;51.502;7.108;2023-05-10T02:36:23;14.30;99.90
31619;DHT22;18230;51.502;7.108;2023-05-10T02:41:25;14.40;99.90
31619;DHT22;18230;51.502;7.108;2023-05-10T02:46:27;14.30;99.90
31619;DHT22;18230;51.502;7.108;2023-05-10T02:51:31;14.30;99.90
31619;DHT22;18230;51.502;7.108;2023-05-10T02:56:34;14.20;99.90
31619;DHT22;18230;51.502;7.108;2023-05-10T03:01:36;14.20;99.90
31619;DHT22;18230;51.502;7.108;2023-05-10T03:06:37;14.30;99.90
31619;DHT22;18230;51.502;7.108;2023-05-10T03:12:13;14.30;99.90
31619;DHT22;18230;51.502;7.108;2023-05-10T03:17:30;14.30;99.90
31619;DHT22;18230;51.502;7.108;2023-05-10T03:22:34;14.30;99.90
31619;DHT22;18230;51.502;7.108;2023-05-10T03:27:40;14.30;99.90
31619;DHT22;18230;51.502;7.108;2023-05-10T03:32:41;14.30;99.90
31619;DHT22;18230;51.502;7.108;2023-05-10T03:37:42;14.40;99.90
31619;DHT22;18230;51.502;7.108;2023-05-10T03:42:42;14.40;99.90
31619;DHT22;18230;51.502;7.108;2023-05-10T03:47:43;14.40;99.90
31619;DHT22;18230;51.502;7.108;2023-05-10T03:52:44;14.40;99.90
31619;DHT22;18230;51.502;7.108;2023-05-10T03:57:45;14.40;99.90
31619;DHT22;18230;51.502;7.108;2023-05-10T04:02:46;14.50;99.90
31619;DHT22;18230;51.502;7.108;2023-05-10T04:07:46;14.50;99.90
31619;DHT22;18230;51.502;7.108;2023-05-10T04:12:49;14.50;99.90
31619;DHT22;18230;51.502;7.108;2023-05-10T04:17:50;14.40;99.90
31619;DHT22;18230;51.502;7.108;2023-05-10T04:22:51;14.40;99.90
31619;DHT22;18230;51.502;7.108;2023-05-10T04:27:52;14.40;99.90
31619;DHT22;18230;51.502;7.108;2023-05-10T04:32:52;14.40;99.90
31619;DHT22;18230;51.502;7.108;2023-05-10T04:37:54;14.50;99.90
31619;DHT22;18230;51.502;7.108;2023-05-10T04:42:54;14.40;99.90
31619;DHT22;18230;51.502;7.108;2023-05-10T04:47:56;14.40;99.90
31619;DHT22;18230;51.502;7.108;2023-05-10T04:52:57;14.40;99.90
31619;DHT22;18230;51.502;7.108;2023-05-10T04:57:57;14.40;99.90
31619;DHT22;18230;51.502;7.108;2023-05-10T05:02:59;14.50;99.90
31619;DHT22;18230;51.502;7.108;2023-05-10T05:08:00;14.40;99.90
31619;DHT22;18230;51.502;7.108;2023-05-10T05:13:01;14.40;99.90
31619;DHT22;18230;51.502;7.108;2023-05-10T05:18:01;14.40;99.90
31619;DHT22;18230;51.502;7.108;2023-05-10T05:23:02;14.50;99.90
31619;DHT22;18230;51.502;7.108;2023-05-10T05:28:03;14.40;99.90
31619;DHT22;18230;51.502;7.108;2023-05-10T05:33:04;14.40;99.90
31619;DHT22;18230;51.502;7.108;2023-05-10T05:38:05;14.40;99.90
31619;DHT22;18230;51.502;7.108;2023-05-10T05:43:06;14.50;99.90
31619;DHT22;18230;51.502;7.108;2023-05-10T05:48:07;14.50;99.90
31619;DHT22;18230;51.502;7.108;2023-05-10T05:53:08;14.50;99.90
31619;DHT22;18230;51.502;7.108;2023-05-10T05:58:09;14.60;99.90
31619;DHT22;18230;51.502;7.108;2023-05-10T06:03:10;14.70;99.90
31619;DHT22;18230;51.502;7.108;2023-05-10T06:08:10;14.70;99.90
31619;DHT22;18230;51.502;7.108;2023-05-10T06:13:11;14.80;99.90
31619;DHT22;18230;51.502;7.108;2023-05-10T06:18:12;14.80;99.90
31619;DHT22;18230;51.502;7.108;2023-05-10T06:23:13;14.90;99.90
31619;DHT22;18230;51.502;7.108;2023-05-10T06:28:13;14.80;99.90
31619;DHT22;18230;51.502;7.108;2023-05-10T06:33:14;14.90;99.90
31619;DHT22;18230;51.502;7.108;2023-05-10T06:38:16;15.00;99.90
31619;DHT22;18230;51.502;7.108;2023-05-10T06:43:17;15.10;99.90
31619;DHT22;18230;51.502;7.108;2023-05-10T06:48:18;15.30;99.90
31619;DHT22;18230;51.502;7.108;2023-05-10T06:53:18;15.60;99.90
31619;DHT22;18230;51.502;7.108;2023-05-10T06:58:19;15.60;99.90
31619;DHT22;18230;51.502;7.108;2023-05-10T07:03:20;15.80;99.90
31619;DHT22;18230;51.502;7.108;2023-05-10T07:08:21;15.80;99.90
31619;DHT22;18230;51.502;7.108;2023-05-10T07:13:21;15.80;99.90
31619;DHT22;18230;51.502;7.108;2023-05-10T07:18:22;16.00;99.90
31619;DHT22;18230;51.502;7.108;2023-05-10T07:23:23;16.30;99.90
31619;DHT22;18230;51.502;7.108;2023-05-10T07:28:24;16.50;99.90
31619;DHT22;18230;51.502;7.108;2023-05-10T07:33:24;16.80;99.90
31619;DHT22;18230;51.502;7.108;2023-05-10T07:38:25;16.90;99.90
31619;DHT22;18230;51.502;7.108;2023-05-10T07:43:26;16.90;99.90
31619;DHT22;18230;51.502;7.108;2023-05-10T07:48:27;16.80;99.90
31619;DHT22;18230;51.502;7.108;2023-05-10T07:53:27;16.50;99.90
31619;DHT22;18230;51.502;7.108;2023-05-10T07:58:28;16.40;99.90
31619;DHT22;18230;51.502;7.108;2023-05-10T08:03:29;16.30;99.90
31619;DHT22;18230;51.502;7.108;2023-05-10T08:08:30;16.40;99.90
31619;DHT22;18230;51.502;7.108;2023-05-10T08:13:30;16.30;99.90
31619;DHT22;18230;51.502;7.108;2023-05-10T08:18:31;16.20;99.90
31619;DHT22;18230;51.502;7.108;2023-05-10T08:23:32;16.20;99.90
31619;DHT22;18230;51.502;7.108;2023-05-10T08:28:33;16.20;99.90
31619;DHT22;18230;51.502;7.108;2023-05-10T08:33:34;16.20;99.90
31619;DHT22;18230;51.502;7.108;2023-05-10T08:38:34;16.30;99.90
31619;DHT22;18230;51.502;7.108;2023-05-10T08:43:36;16.40;99.90
31619;DHT22;18230;51.502;7.108;2023-05-10T08:48:37;16.80;99.90
31619;DHT22;18230;51.502;7.108;2023-05-10T08:53:38;17.10;99.90
31619;DHT22;18230;51.502;7.108;2023-05-10T08:58:39;17.00;99.90
31619;DHT22;18230;51.502;7.108;2023-05-10T09:03:40;16.90;99.90
31619;DHT22;18230;51.502;7.108;2023-05-10T09:08:42;17.20;99.90
31619;DHT22;18230;51.502;7.108;2023-05-10T09:13:43;17.20;99.90
31619;DHT22;18230;51.502;7.108;2023-05-10T09:18:44;17.10;99.90
31619;DHT22;18230;51.502;7.108;2023-05-10T09:23:45;16.90;99.90
31619;DHT22;18230;51.502;7.108;2023-05-10T09:28:58;17.10;99.90
31619;DHT22;18230;51.502;7.108;2023-05-10T09:33:59;17.30;99.90
31619;DHT22;18230;51.502;7.108;2023-05-10T09:39:00;17.90;99.90
31619;DHT22;18230;51.502;7.108;2023-05-10T09:44:01;18.10;99.90
31619;DHT22;18230;51.502;7.108;2023-05-10T09:49:01;18.10;99.90
31619;DHT22;18230;51.502;7.108;2023-05-10T09:54:16;17.90;99.90
31619;DHT22;18230;51.502;7.108;2023-05-10T09:59:18;17.90;99.90
31619;DHT22;18230;51.502;7.108;2023-05-10T10:04:20;17.50;99.90
31619;DHT22;18230;51.502;7.108;2023-05-10T10:09:21;17.30;99.90
31619;DHT22;18230;51.502;7.108;2023-05-10T10:14:23;17.10;99.90
31619;DHT22;18230;51.502;7.108;2023-05-10T10:19:24;17.00;99.90
31619;DHT22;18230;51.502;7.108;2023-05-10T10:24:26;17.00;99.90
31619;DHT22;18230;51.502;7.108;2023-05-10T10:29:41;17.10;99.90
31619;DHT22;18230;51.502;7.108;2023-05-10T10:34:44;17.20;99.90
31619;DHT22;18230;51.502;7.108;2023-05-10T10:39:49;17.20;99.90
31619;DHT22;18230;51.502;7.108;2023-05-10T10:45:13;17.10;99.90
31619;DHT22;18230;51.502;7.108;2023-05-10T10:50:20;17.30;99.90
31619;DHT22;18230;51.502;7.108;2023-05-10T10:55:28;17.40;99.90
31619;DHT22;18230;51.502;7.108;2023-05-10T11:00:35;17.30;99.90
31619;DHT22;18230;51.502;7.108;2023-05-10T11:16:21;17.20;99.90
31619;DHT22;18230;51.502;7.108;2023-05-10T11:21:21;17.40;99.90
31619;DHT22;18230;51.502;7.108;2023-05-10T11:26:27;17.50;99.90
31619;DHT22;18230;51.502;7.108;2023-05-10T11:31:30;17.70;99.90
31619;DHT22;18230;51.502;7.108;2023-05-10T11:36:35;17.80;99.90
31619;DHT22;18230;51.502;7.108;2023-05-10T11:41:36;18.00;99.90
31619;DHT22;18230;51.502;7.108;2023-05-10T11:46:37;17.80;99.90
31619;DHT22;18230;51.502;7.108;2023-05-10T11:51:38;17.80;99.90
31619;DHT22;18230;51.502;7.108;2023-05-10T11:56:40;17.80;99.90
31619;DHT22;18230;51.502;7.108;2023-05-10T12:01:41;17.60;99.90
31619;DHT22;18230;51.502;7.108;2023-05-10T12:06:42;17.80;99.90
31619;DHT22;18230;51.502;7.108;2023-05-10T12:11:43;18.10;99.90
31619;DHT22;18230;51.502;7.108;2023-05-10T12:16:44;18.30;99.90
31619;DHT22;18230;51.502;7.108;2023-05-10T12:21:44;18.30;99.90
31619;DHT22;18230;51.502;7.108;2023-05-10T12:26:45;18.50;99.90
31619;DHT22;18230;51.502;7.108;2023-05-10T12:31:58;18.50;99.90
31619;DHT22;18230;51.502;7.108;2023-05-10T12:36:59;18.60;99.90
31619;DHT22;18230;51.502;7.108;2023-05-10T12:42:00;18.50;99.90
31619;DHT22;18230;51.502;7.108;2023-05-10T12:47:01;18.40;99.90
31619;DHT22;18230;51.502;7.108;2023-05-10T12:52:02;18.20;99.90
31619;DHT22;18230;51.502;7.108;2023-05-10T12:57:02;18.10;99.90
31619;DHT22;18230;51.502;7.108;2023-05-10T13:02:03;18.30;99.90
31619;DHT22;18230;51.502;7.108;2023-05-10T13:07:04;18.60;99.90
31619;DHT22;18230;51.502;7.108;2023-05-10T13:12:05;18.80;99.90
31619;DHT22;18230;51.502;7.108;2023-05-10T13:17:10;19.00;99.90
31619;DHT22;18230;51.502;7.108;2023-05-10T13:22:11;19.20;99.90
31619;DHT22;18230;51.502;7.108;2023-05-10T13:27:12;19.50;99.90
31619;DHT22;18230;51.502;7.108;2023-05-10T13:32:12;19.60;99.90
31619;DHT22;18230;51.502;7.108;2023-05-10T13:37:13;19.60;99.90
31619;DHT22;18230;51.502;7.108;2023-05-10T13:42:14;19.70;99.90
31619;DHT22;18230;51.502;7.108;2023-05-10T13:47:14;19.70;99.90
31619;DHT22;18230;51.502;7.108;2023-05-10T13:52:15;19.60;99.90
31619;DHT22;18230;51.502;7.108;2023-05-10T13:57:16;19.80;99.90
31619;DHT22;18230;51.502;7.108;2023-05-10T14:02:17;20.10;99.90
31619;DHT22;18230;51.502;7.108;2023-05-10T14:07:20;19.90;99.90
31619;DHT22;18230;51.502;7.108;2023-05-10T14:12:21;19.60;99.90
31619;DHT22;18230;51.502;7.108;2023-05-10T14:17:21;19.50;99.90
31619;DHT22;18230;51.502;7.108;2023-05-10T14:22:22;19.30;99.90
31619;DHT22;18230;51.502;7.108;2023-05-10T14:27:24;19.30;99.90
31619;DHT22;18230;51.502;7.108;2023-05-10T14:32:24;19.60;99.90
31619;DHT22;18230;51.502;7.108;2023-05-10T14:37:27;19.90;99.90
31619;DHT22;18230;51.502;7.108;2023-05-10T14:42:28;20.10;99.90
31619;DHT22;18230;51.502;7.108;2023-05-10T14:47:28;20.80;99.90
31619;DHT22;18230;51.502;7.108;2023-05-10T14:52:29;21.00;99.90
31619;DHT22;18230;51.502;7.108;2023-05-10T14:57:30;20.50;99.90
31619;DHT22;18230;51.502;7.108;2023-05-10T15:02:31;20.30;99.90
31619;DHT22;18230;51.502;7.108;2023-05-10T15:07:32;20.40;99.90
31619;DHT22;18230;51.502;7.108;2023-05-10T15:12:33;20.40;99.90
31619;DHT22;18230;51.502;7.108;2023-05-10T15:17:33;20.00;99.90
31619;DHT22;18230;51.502;7.108;2023-05-10T15:22:35;19.80;99.90
31619;DHT22;18230;51.502;7.108;2023-05-10T15:27:36;19.70;99.90
31619;DHT22;18230;51.502;7.108;2023-05-10T15:32:37;19.70;99.90
31619;DHT22;18230;51.502;7.108;2023-05-10T15:37:48;19.60;99.90
31619;DHT22;18230;51.502;7.108;2023-05-10T15:42:58;19.50;99.90
31619;DHT22;18230;51.502;7.108;2023-05-10T15:47:59;19.40;99.90
31619;DHT22;18230;51.502;7.108;2023-05-10T15:53:06;19.30;99.90
31619;DHT22;18230;51.502;7.108;2023-05-10T15:58:10;19.30;99.90
31619;DHT22;18230;51.502;7.108;2023-05-10T16:03:13;19.30;99.90
31619;DHT22;18230;51.502;7.108;2023-05-10T16:08:14;19.30;99.90
31619;DHT22;18230;51.502;7.108;2023-05-10T16:13:19;19.20;99.90
31619;DHT22;18230;51.502;7.108;2023-05-10T16:18:26;19.00;99.90
31619;DHT22;18230;51.502;7.108;2023-05-10T16:23:34;19.00;99.90
31619;DHT22;18230;51.502;7.108;2023-05-10T16:28:40;18.90;99.90
31619;DHT22;18230;51.502;7.108;2023-05-10T16:33:44;18.70;99.90
31619;DHT22;18230;51.502;7.108;2023-05-10T16:38:45;18.50;99.90
31619;DHT22;18230;51.502;7.108;2023-05-10T16:43:46;18.30;99.90
31619;DHT22;18230;51.502;7.108;2023-05-10T16:48:47;18.20;99.90
31619;DHT22;18230;51.502;7.108;2023-05-10T16:53:47;17.90;99.90
31619;DHT22;18230;51.502;7.108;2023-05-10T17:04:00;17.40;99.90
31619;DHT22;18230;51.502;7.108;2023-05-10T17:09:00;17.20;99.90
31619;DHT22;18230;51.502;7.108;2023-05-10T17:14:13;17.20;99.90
31619;DHT22;18230;51.502;7.108;2023-05-10T17:19:14;17.00;99.90
31619;DHT22;18230;51.502;7.108;2023-05-10T17:24:14;16.90;99.90
31619;DHT22;18230;51.502;7.108;2023-05-10T17:29:15;16.80;99.90
31619;DHT22;18230;51.502;7.108;2023-05-10T17:34:16;16.70;99.90
31619;DHT22;18230;51.502;7.108;2023-05-10T17:39:17;16.70;99.90
31619;DHT22;18230;51.502;7.108;2023-05-10T17:44:17;16.60;99.90
31619;DHT22;18230;51.502;7.108;2023-05-10T17:49:18;16.60;99.90
31619;DHT22;18230;51.502;7.108;2023-05-10T17:54:19;16.40;99.90
31619;DHT22;18230;51.502;7.108;2023-05-10T17:59:20;16.40;99.90
31619;DHT22;18230;51.502;7.108;2023-05-10T18:04:21;16.40;99.90
31619;DHT22;18230;51.502;7.108;2023-05-10T18:09:21;16.40;99.90
31619;DHT22;18230;51.502;7.108;2023-05-10T18:14:25;16.40;99.90
31619;DHT22;18230;51.502;7.108;2023-05-10T18:19:27;16.40;99.90
31619;DHT22;18230;51.502;7.108;2023-05-10T18:24:43;16.50;99.90
31619;DHT22;18230;51.502;7.108;2023-05-10T18:29:45;16.50;99.90
31619;DHT22;18230;51.502;7.108;2023-05-10T18:34:45;16.40;99.90
31619;DHT22;18230;51.502;7.108;2023-05-10T18:39:46;16.30;99.90
31619;DHT22;18230;51.502;7.108;2023-05-10T18:44:47;16.20;99.90
31619;DHT22;18230;51.502;7.108;2023-05-10T18:49:48;16.20;99.90
31619;DHT22;18230;51.502;7.108;2023-05-10T18:55:07;16.10;99.90
31619;DHT22;18230;51.502;7.108;2023-05-10T19:00:12;16.10;99.90
31619;DHT22;18230;51.502;7.108;2023-05-10T19:05:13;16.20;99.90
31619;DHT22;18230;51.502;7.108;2023-05-10T19:10:14;16.20;99.90
31619;DHT22;18230;51.502;7.108;2023-05-10T19:15:15;16.10;99.90
31619;DHT22;18230;51.502;7.108;2023-05-10T19:20:16;16.10;99.90
31619;DHT22;18230;51.502;7.108;2023-05-10T19:25:16;16.00;99.90
31619;DHT22;18230;51.502;7.108;2023-05-10T19:30:19;16.00;99.90
31619;DHT22;18230;51.502;7.108;2023-05-10T19:35:19;16.00;99.90
31619;DHT22;18230;51.502;7.108;2023-05-10T19:40:20;16.00;99.90
31619;DHT22;18230;51.502;7.108;2023-05-10T19:45:21;16.00;99.90
31619;DHT22;18230;51.502;7.108;2023-05-10T19:50:22;15.90;99.90
31619;DHT22;18230;51.502;7.108;2023-05-10T19:55:27;15.90;99.90
31619;DHT22;18230;51.502;7.108;2023-05-10T20:00:28;15.90;99.90
31619;DHT22;18230;51.502;7.108;2023-05-10T20:05:29;15.90;99.90
31619;DHT22;18230;51.502;7.108;2023-05-10T20:10:30;16.00;99.90
31619;DHT22;18230;51.502;7.108;2023-05-10T20:15:31;16.00;99.90
31619;DHT22;18230;51.502;7.108;2023-05-10T20:20:32;15.90;99.90
31619;DHT22;18230;51.502;7.108;2023-05-10T20:25:32;15.90;99.90
31619;DHT22;18230;51.502;7.108;2023-05-10T20:30:33;15.80;99.90
31619;DHT22;18230;51.502;7.108;2023-05-10T20:35:34;15.80;99.90
31619;DHT22;18230;51.502;7.108;2023-05-10T20:40:38;15.80;99.90
31619;DHT22;18230;51.502;7.108;2023-05-10T20:45:39;15.80;99.90
31619;DHT22;18230;51.502;7.108;2023-05-10T20:50:40;15.80;99.90
31619;DHT22;18230;51.502;7.108;2023-05-10T20:55:40;15.80;99.90
31619;DHT22;18230;51.502;7.108;2023-05-10T21:00:41;15.80;99.90
31619;DHT22;18230;51.502;7.108;2023-05-10T21:05:42;15.70;99.90
31619;DHT22;18230;51.502;7.108;2023-05-10T21:10:43;15.80;99.90
31619;DHT22;18230;51.502;7.108;2023-05-10T21:15:45;15.70;99.90
31619;DHT22;18230;51.502;7.108;2023-05-10T21:20:46;15.70;99.90
31619;DHT22;18230;51.502;7.108;2023-05-10T21:25:46;15.60;99.90
31619;DHT22;18230;51.502;7.108;2023-05-10T21:30:47;15.60;99.90
31619;DHT22;18230;51.502;7.108;2023-05-10T21:35:48;15.50;99.90
31619;DHT22;18230;51.502;7.108;2023-05-10T21:40:49;15.50;99.90
31619;DHT22;18230;51.502;7.108;2023-05-10T21:45:50;15.40;99.90
31619;DHT22;18230;51.502;7.108;2023-05-10T21:50:51;15.40;99.90
31619;DHT22;18230;51.502;7.108;2023-05-10T21:55:51;15.40;99.90
31619;DHT22;18230;51.502;7.108;2023-05-10T22:00:54;15.30;99.90
31619;DHT22;18230;51.502;7.108;2023-05-10T22:05:55;15.20;99.90
31619;DHT22;18230;51.502;7.108;2023-05-10T22:10:56;15.20;99.90
31619;DHT22;18230;51.502;7.108;2023-05-10T22:15:57;15.20;99.90
31619;DHT22;18230;51.502;7.108;2023-05-10T22:20:57;15.20;99.90
31619;DHT22;18230;51.502;7.108;2023-05-10T22:26:00;15.20;99.90
31619;DHT22;18230;51.502;7.108;2023-05-10T22:31:01;15.10;99.90
31619;DHT22;18230;51.502;7.108;2023-05-10T22:36:02;15.10;99.90
31619;DHT22;18230;51.502;7.108;2023-05-10T22:41:02;15.00;99.90
31619;DHT22;18230;51.502;7.108;2023-05-10T22:46:03;15.00;99.90
31619;DHT22;18230;51.502;7.108;2023-05-10T22:51:04;15.00;99.90
31619;DHT22;18230;51.502;7.108;2023-05-10T22:56:05;15.10;99.90
31619;DHT22;18230;51.502;7.108;2023-05-10T23:01:09;15.10;99.90
31619;DHT22;18230;51.502;7.108;2023-05-10T23:06:12;15.00;99.90
31619;DHT22;18230;51.502;7.108;2023-05-10T23:11:13;15.10;99.90
31619;DHT22;18230;51.502;7.108;2023-05-10T23:16:14;15.10;99.90
31619;DHT22;18230;51.502;7.108;2023-05-10T23:21:15;15.10;99.90
31619;DHT22;18230;51.502;7.108;2023-05-10T23:26:16;15.00;99.90
31619;DHT22;18230;51.502;7.108;2023-05-10T23:31:17;15.00;99.90
31619;DHT22;18230;51.502;7.108;2023-05-10T23:36:18;15.00;99.90
31619;DHT22;18230;51.502;7.108;2023-05-10T23:41:19;14.90;99.90
31619;DHT22;18230;51.502;7.108;2023-05-10T23:46:19;14.90;99.90
31619;DHT22;18230;51.502;7.108;2023-05-10T23:51:20;14.90;99.90
31619;DHT22;18230;51.502;7.108;2023-05-10T23:56:33;15.00;99.90
